Time;durP1;ratioP1;P1;durP2;ratioP2;P2;SDS_P1;SDS_P2;PMS_P1;PMS_P2;Temp;Humidity;BMP_temperature;BMP_pressure;BME280_temperature;BME280_humidity;BME280_pressure;Samples;Min_cycle;Max_cycle;Signal;HPM_P1;HPM_P2
2023/02/19 00:02:11;;;;;;;12.50;4.80;;;;;;;4.16;74.75;99868.88;107304;1263;63657;-95
2023/02/19 00:04:40;;;;;;;10.10;4.30;;;;;;;4.16;74.96;99868.34;107385;1262;73737;-95
2023/02/19 00:07:36;;;;;;;11.20;3.60;;;;;;;4.18;74.95;99860.65;107429;1262;59262;-94
2023/02/19 00:10:12;;;;;;;9.20;3.40;;;;;;;4.19;74.64;99854.92;108637;1262;60682;-92
2023/02/19 00:12:43;;;;;;;12.40;5.40;;;;;;;4.19;74.73;99854.56;108627;1262;73894;-93
2023/02/19 00:15:19;;;;;;;10.90;4.90;;;;;;;4.18;74.64;99855.45;108644;1262;64720;-94
2023/02/19 00:17:53;;;;;;;10.50;3.40;;;;;;;4.13;74.65;99856.52;107694;1265;72778;-95
2023/02/19 00:20:29;;;;;;;6.80;3.70;;;;;;;4.12;74.89;99851.20;107384;1265;59717;-94
2023/02/19 00:23:06;;;;;;;7.20;3.50;;;;;;;4.10;74.77;99838.35;107720;1265;59650;-94
2023/02/19 00:25:48;;;;;;;8.90;4.00;;;;;;;4.05;74.93;99833.55;107546;1262;72834;-94
2023/02/19 00:28:24;;;;;;;12.20;4.10;;;;;;;4.04;75.11;99834.64;108172;1267;64094;-94
2023/02/19 00:30:55;;;;;;;11.20;3.90;;;;;;;4.02;74.92;99828.67;108695;1260;71801;-95
2023/02/19 00:33:28;;;;;;;9.60;4.50;;;;;;;4.06;75.13;99831.98;108554;1260;60132;-93
2023/02/19 00:36:02;;;;;;;7.90;3.60;;;;;;;4.08;74.94;99843.63;107345;1261;59640;-93
2023/02/19 00:38:56;;;;;;;9.30;3.80;;;;;;;4.10;74.92;99838.00;107918;1260;72055;-95
2023/02/19 00:41:47;;;;;;;9.60;2.80;;;;;;;4.13;74.66;99835.08;107488;1261;64864;-94
2023/02/19 00:44:19;;;;;;;11.80;3.10;;;;;;;4.15;74.77;99835.02;107318;1264;73329;-94
2023/02/19 00:47:09;;;;;;;8.90;3.20;;;;;;;4.16;74.64;99832.37;107577;1260;61784;-95
2023/02/19 00:50:13;;;;;;;6.60;2.80;;;;;;;4.14;74.44;99841.46;107783;1259;62045;-94
2023/02/19 00:52:53;;;;;;;9.60;3.20;;;;;;;4.08;74.62;99842.23;107576;1258;72353;-94
2023/02/19 00:55:24;;;;;;;7.50;3.40;;;;;;;4.05;74.53;99841.70;107573;1258;63916;-93
2023/02/19 00:57:58;;;;;;;3.70;2.80;;;;;;;4.00;74.79;99838.95;107618;1262;72763;-93
2023/02/19 01:00:26;;;;;;;12.90;3.30;;;;;;;3.96;74.90;99842.80;107994;1264;59949;-93
2023/02/19 01:02:56;;;;;;;12.30;2.70;;;;;;;3.95;75.01;99841.98;108528;1258;60746;-92
2023/02/19 09:17:45;;;;;;;8.90;3.70;;;;;;;14.17;43.69;99994.45;108619;1260;612317;31
2023/02/19 09:21:21;;;;;;;5.70;2.80;;;;;;;15.27;41.37;99990.21;106337;1250;5867953;-94
2023/02/19 09:24:27;;;;;;;5.20;3.00;;;;;;;15.83;40.99;99980.79;110551;1250;58992;-96
2023/02/19 09:27:31;;;;;;;10.00;3.60;;;;;;;16.27;40.12;99980.57;109165;1250;72294;-94
2023/02/19 09:30:02;;;;;;;8.20;3.30;;;;;;;16.75;39.43;99982.66;110167;1245;63806;-95
2023/02/19 09:32:49;;;;;;;8.10;3.40;;;;;;;17.22;38.75;99980.41;111160;1246;71716;-94
2023/02/19 09:35:49;;;;;;;6.80;3.70;;;;;;;17.63;37.82;99984.42;109793;1248;59184;-92
2023/02/19 09:38:41;;;;;;;9.00;2.90;;;;;;;17.88;37.36;99982.56;109493;1248;59937;-95
2023/02/19 09:41:58;;;;;;;8.10;3.20;;;;;;;18.10;36.23;99988.22;110269;1248;71949;-94
2023/02/19 09:45:21;;;;;;;9.10;3.10;;;;;;;17.89;35.99;99991.85;110689;1231;63833;31
2023/02/19 09:48:52;;;;;;;8.70;3.20;;;;;;;17.04;35.38;99983.83;112051;1233;71730;-95
2023/02/19 09:53:46;;;;;;;8.10;2.70;;;;;;;15.88;37.07;99977.64;112006;1234;57819;-92
2023/02/19 09:56:47;;;;;;;7.90;2.60;;;;;;;15.42;37.91;99961.94;111622;1240;61285;-94
2023/02/19 10:00:08;;;;;;;6.90;2.40;;;;;;;15.55;37.99;99960.20;111435;1240;71389;-95
2023/02/19 10:04:05;;;;;;;7.60;2.40;;;;;;;15.94;37.60;99954.16;111015;1241;62636;-94
2023/02/19 10:07:44;;;;;;;9.00;3.10;;;;;;;16.41;36.42;99946.92;110954;1246;73000;-96
2023/02/19 10:10:37;;;;;;;7.70;2.70;;;;;;;16.79;37.05;99940.83;110558;1241;59735;-93
2023/02/19 10:13:41;;;;;;;7.40;2.70;;;;;;;17.41;36.53;99937.09;110588;1241;60101;-94
2023/02/19 10:16:24;;;;;;;5.80;2.30;;;;;;;18.03;35.36;99936.87;110624;1241;73966;-94
2023/02/19 10:19:25;;;;;;;12.20;2.70;;;;;;;18.47;33.92;99936.28;110544;1245;63760;-93
2023/02/19 10:22:27;;;;;;;6.40;2.70;;;;;;;18.68;33.22;99937.55;110661;1245;71207;-93
2023/02/19 10:25:18;;;;;;;7.60;3.30;;;;;;;18.73;32.78;99934.08;110528;1250;61205;-90
2023/02/19 10:28:02;;;;;;;9.80;3.70;;;;;;;18.74;32.97;99936.61;110247;1249;61473;-93
2023/02/19 10:30:57;;;;;;;8.80;3.20;;;;;;;18.87;32.48;99934.73;109756;1251;72945;-93
2023/02/19 10:33:28;;;;;;;7.80;4.00;;;;;;;19.11;32.00;99933.72;109340;1251;63782;-93
2023/02/19 10:36:39;;;;;;;7.90;3.00;;;;;;;19.32;31.87;99934.54;109561;1251;70878;-94
2023/02/19 10:39:46;;;;;;;9.10;3.00;;;;;;;19.63;30.96;99930.78;109472;1247;60660;-92
2023/02/19 10:42:29;;;;;;;6.30;3.60;;;;;;;19.73;30.32;99942.50;109563;1248;62122;-92
2023/02/19 10:45:01;;;;;;;12.00;3.80;;;;;;;19.67;30.20;99946.14;109806;1247;72034;-91
2023/02/19 10:47:45;;;;;;;10.80;3.60;;;;;;;19.72;30.37;99947.74;109824;1251;64983;-93
2023/02/19 10:50:44;;;;;;;7.00;2.50;;;;;;;19.55;29.69;99939.89;110074;1244;72614;-92
2023/02/19 10:53:43;;;;;;;6.00;2.60;;;;;;;19.35;30.34;99942.15;110275;1244;60075;-94
2023/02/19 10:56:23;;;;;;;5.40;2.50;;;;;;;19.44;30.29;99946.15;110502;1248;61159;-92
2023/02/19 10:59:40;;;;;;;7.00;2.70;;;;;;;19.44;30.24;99950.76;111013;1243;71762;-95
2023/02/19 11:02:49;;;;;;;6.00;3.00;;;;;;;19.43;29.52;99947.02;110882;1248;62821;-94
2023/02/19 11:05:55;;;;;;;8.40;2.90;;;;;;;19.25;30.50;99946.80;111148;1248;74304;-95
2023/02/19 11:09:44;;;;;;;;;;;;;;;;;;;;;
2023/02/19 11:13:54;;;;;;;7.80;4.50;;;;;;;18.38;31.00;99958.05;111765;1239;58816;-92
2023/02/19 11:18:08;;;;;;;5.00;2.80;;;;;;;17.34;31.56;99959.46;112017;1235;74469;-94
2023/02/19 11:22:17;;;;;;;6.40;2.60;;;;;;;16.18;32.61;99947.52;112065;1235;62495;-91
2023/02/19 11:30:16;;;;;;;8.70;3.10;;;;;;;14.62;35.63;99955.15;111881;1232;61141;-96
2023/02/19 11:42:00;;;;;;;10.10;4.10;;;;;;;13.22;38.06;99935.80;110662;1245;63091;-93
2023/02/19 11:45:06;;;;;;;9.90;4.60;;;;;;;12.84;38.36;99936.27;110874;1245;72446;-93
2023/02/19 11:48:11;;;;;;;10.40;5.60;;;;;;;12.71;39.25;99934.17;110635;1244;61534;-92
2023/02/19 11:51:10;;;;;;;;;;;;;;;12.66;39.68;99927.58;109916;1251;60369;-93
2023/02/19 12:11:33;;;;;;;10.10;3.30;;;;;;;10.73;42.36;99973.95;111932;1232;60949;-94
2023/02/19 12:14:59;;;;;;;11.00;3.80;;;;;;;10.66;42.67;99974.92;111430;1233;73315;-94
2023/02/19 12:22:20;;;;;;;7.50;2.60;;;;;;;10.19;42.91;99977.98;112362;1233;71596;-95
2023/02/19 12:25:43;;;;;;;9.90;5.50;;;;;;;10.00;43.55;99974.61;112393;1232;59514;-96
2023/02/19 12:29:31;;;;;;;7.20;3.40;;;;;;;9.99;43.44;99967.13;112463;1232;59015;-94
2023/02/19 12:44:08;;;;;;;3.20;2.10;;;;;;;9.85;43.54;99953.04;112515;1234;58973;-95
2023/02/19 12:48:19;;;;;;;5.80;3.10;;;;;;;9.69;43.73;99959.34;112347;1232;59765;-94
2023/02/19 13:54:09;;;;;;;8.20;2.30;;;;;;;7.74;45.63;99988.29;111148;1245;62397;-95
2023/02/19 13:58:55;;;;;;;4.80;2.20;;;;;;;7.65;45.89;99984.11;112527;1232;71877;-96
2023/02/19 14:14:05;;;;;;;4.10;2.50;;;;;;;7.41;47.03;99993.08;112611;1232;64966;-95
2023/02/19 14:18:11;;;;;;;5.40;3.30;;;;;;;7.40;47.27;99998.37;112523;1232;73704;-96
2023/02/19 14:35:17;;;;;;;16.60;7.40;;;;;;;7.18;47.56;99998.42;112704;1234;71202;-96
2023/02/19 21:45:17;;;;;;;16.10;7.50;;;;;;;3.85;65.69;100033.46;108915;1260;72346;31
2023/02/19 21:56:56;;;;;;;;;;;;;;;;;;;;;
2023/02/19 22:00:39;;;;;;;23.40;9.70;;;;;;;3.61;66.39;100036.20;110863;1246;59970;-94
2023/02/19 22:05:22;;;;;;;20.80;12.00;;;;;;;3.61;66.58;100035.48;110503;1254;71494;-95
2023/02/19 22:12:48;;;;;;;20.40;9.80;;;;;;;3.76;66.42;100041.11;109841;1254;70180;-96
2023/02/19 22:15:40;;;;;;;21.70;9.80;;;;;;;3.75;66.36;100043.73;109284;1259;59314;-94
2023/02/19 22:18:35;;;;;;;18.10;9.70;;;;;;;3.77;66.26;100051.11;108877;1257;59536;-91
2023/02/19 22:21:49;;;;;;;15.50;9.00;;;;;;;3.75;66.49;100052.20;111350;1240;71276;-90
2023/02/19 22:25:36;;;;;;;15.10;8.00;;;;;;;3.72;66.40;100052.16;111223;1238;61460;-95
2023/02/19 22:28:42;;;;;;;16.00;7.30;;;;;;;3.68;66.69;100059.08;111769;1238;73665;-94
2023/02/19 22:31:31;;;;;;;22.90;8.90;;;;;;;3.65;66.68;100062.30;111244;1237;59574;-95
2023/02/19 22:34:47;;;;;;;20.70;9.70;;;;;;;3.64;66.90;100064.41;111359;1238;60003;-94
2023/02/19 22:37:35;;;;;;;20.10;9.20;;;;;;;3.63;67.05;100062.73;111122;1238;75327;-93
2023/02/19 22:40:27;;;;;;;17.60;9.30;;;;;;;3.61;67.05;100064.00;111458;1238;63161;-93
2023/02/19 22:43:05;;;;;;;18.50;8.80;;;;;;;3.57;67.14;100058.11;110937;1238;73558;-93
2023/02/19 22:45:58;;;;;;;21.60;8.60;;;;;;;3.61;67.22;100061.42;110881;1239;62122;-95
2023/02/19 22:49:03;;;;;;;15.20;7.90;;;;;;;3.61;67.13;100054.34;110996;1244;58664;-94
2023/02/19 22:52:02;;;;;;;19.30;8.50;;;;;;;3.67;67.19;100051.50;111598;1238;71610;-94
2023/02/19 22:54:38;;;;;;;20.00;8.30;;;;;;;3.72;67.27;100044.54;111847;1238;63709;-95
2023/02/19 22:57:47;;;;;;;19.20;9.20;;;;;;;3.80;67.20;100043.69;111878;1235;73090;-95
2023/02/19 23:01:04;;;;;;;27.70;16.30;;;;;;;3.87;66.69;100043.77;111861;1235;59619;-94
2023/02/19 23:04:10;;;;;;;23.10;16.40;;;;;;;3.92;66.51;100037.48;112018;1235;59693;-94
2023/02/19 23:06:46;;;;;;;24.80;12.00;;;;;;;3.96;66.34;100038.73;112177;1240;72020;-96
2023/02/19 23:09:47;;;;;;;21.00;12.90;;;;;;;3.98;66.26;100040.19;110831;1235;63561;-95
2023/02/19 23:12:27;;;;;;;19.10;10.40;;;;;;;3.99;66.20;100049.83;111806;1240;72517;-93
2023/02/19 23:15:14;;;;;;;20.90;11.10;;;;;;;4.00;66.02;100051.38;110951;1244;59649;-96
2023/02/19 23:21:21;;;;;;;19.50;11.80;;;;;;;3.91;66.39;100054.33;110905;1236;72208;-95
2023/02/19 23:25:06;;;;;;;23.20;13.40;;;;;;;3.80;66.63;100053.41;110396;1239;62491;-94
2023/02/19 23:28:58;;;;;;;29.30;13.00;;;;;;;3.67;67.00;100052.36;109811;1247;75196;-95
2023/02/19 23:31:46;;;;;;;18.80;11.10;;;;;;;3.57;67.25;100047.75;109497;1248;59549;-94
2023/02/19 23:35:24;;;;;;;;;;;;;;;3.55;67.53;100049.58;111239;1247;60526;-95
2023/02/19 23:37:59;;;;;;;19.10;7.90;;;;;;;3.53;67.78;100050.67;111179;1246;72890;-95
2023/02/19 23:40:44;;;;;;;16.10;7.90;;;;;;;3.52;67.81;100055.56;111441;1246;64336;-95
2023/02/19 23:43:43;;;;;;;12.00;6.60;;;;;;;3.54;68.28;100052.53;111475;1246;75165;-93
2023/02/19 23:47:48;;;;;;;14.20;7.50;;;;;;;3.58;68.35;100054.46;111751;1238;58691;-93
2023/02/19 23:50:37;;;;;;;13.40;7.80;;;;;;;3.68;68.31;100059.73;111488;1237;60107;-94
2023/02/19 23:53:07;;;;;;;17.00;8.50;;;;;;;3.73;68.08;100061.80;111213;1236;73356;-95
2023/02/19 23:55:52;;;;;;;16.90;10.10;;;;;;;3.74;68.05;100062.97;111537;1236;65104;-94
2023/02/19 23:58:42;;;;;;;14.90;9.40;;;;;;;3.76;67.93;100062.19;110868;1238;72516;-95
